| time (UTC) | temp F | wind direction | speed MPH | gust MPH | rain 1hr in | rain 24hr in | rain mn in | humidity % | barometer mb |
| 20260508002008 | 54 | 0.0 | 0.0 | 0.00 | 0.00 | 0.00 | 1014.7 | ||
| 20260508001008 | 54 | 0.0 | 0.0 | 0.00 | 0.00 | 0.00 | 1014.7 | ||
| 20260508000008 | 54 | 0.0 | 0.0 | 0.00 | 0.00 | 0.00 | 1014.5 | ||
| 20260507235008 | 54 | 0.0 | 0.0 | 0.00 | 0.00 | 0.00 | 1014.7 | ||
| 20260507234008 | 55 | 0.0 | 0.0 | 0.00 | 0.00 | 0.00 | 1014.6 | ||
| 20260507233008 | 55 | 0.0 | 0.0 | 0.00 | 0.00 | 0.00 | 1014.6 | ||
| 20260507232008 | 55 | 0.0 | 0.0 | 0.00 | 0.00 | 0.00 | 1014.8 | ||
| 20260507231008 | 55 | 0.0 | 0.0 | 0.00 | 0.00 | 0.00 | 1014.6 | ||
| 20260507230008 | 55 | 0.0 | 0.0 | 0.00 | 0.00 | 0.00 | 1014.7 | ||
| 20260507225008 | 55 | 0.0 | 0.0 | 0.00 | 0.00 | 0.00 | 1014.8 | ||
| 20260507224008 | 56 | 0.0 | 0.0 | 0.00 | 0.00 | 0.00 | 1014.8 | ||
| 20260507223008 | 56 | 0.0 | 0.0 | 0.00 | 0.00 | 0.00 | 1014.8 | ||
| 20260507222008 | 56 | 0.0 | 0.0 | 0.00 | 0.00 | 0.00 | 1014.8 | ||
| 20260507221008 | 56 | 0.0 | 0.0 | 0.00 | 0.00 | 0.00 | 1014.6 | ||
| 20260507220008 | 56 | 0.0 | 0.0 | 0.00 | 0.00 | 0.00 | 1014.4 | ||
| 20260507215009 | 56 | 0.0 | 0.0 | 0.00 | 0.00 | 0.00 | 1014.3 | ||
| 20260507214008 | 56 | 0.0 | 0.0 | 0.00 | 0.00 | 0.00 | 1014.3 | ||
| 20260507213008 | 56 | 0.0 | 0.0 | 0.00 | 0.00 | 0.00 | 1014.3 | ||
| 20260507212008 | 57 | 0.0 | 0.0 | 0.00 | 0.00 | 0.00 | 1014.1 | ||
| 20260507210008 | 57 | 0.0 | 0.0 | 0.00 | 0.00 | 0.00 | 1013.9 | ||
| 20260507205008 | 57 | 0.0 | 0.0 | 0.00 | 0.00 | 0.00 | 1014.0 | ||
| 20260507204008 | 57 | 0.0 | 0.0 | 0.00 | 0.00 | 0.00 | 1013.9 | ||
| 20260507203008 | 57 | 0.0 | 0.0 | 0.00 | 0.00 | 0.00 | 32 | 1013.8 | |
| 20260507202008 | 57 | 0.0 | 0.0 | 0.00 | 0.00 | 0.00 | 40 | 1013.7 | |
| 20260507201008 | 57 | 0.0 | 0.0 | 0.00 | 0.00 | 0.00 | 50 | 1013.7 | |
| 20260507200008 | 57 | 0.0 | 0.0 | 0.00 | 0.00 | 0.00 | 65 | 1013.6 | |
| 20260507195008 | 57 | 0.0 | 0.0 | 0.00 | 0.00 | 0.00 | 81 | 1013.5 | |
| 20260507194008 | 57 | 0.0 | 0.0 | 0.00 | 0.00 | 0.00 | 97 | 1013.6 | |
| 20260507193008 | 57 | 0.0 | 0.0 | 0.00 | 0.00 | 0.00 | 99 | 1013.6 | |
| 20260507192008 | 58 | 0.0 | 0.0 | 0.00 | 0.00 | 0.00 | 99 | 1013.6 | |
| 20260507191008 | 57 | 0.0 | 0.0 | 0.00 | 0.00 | 0.00 | 99 | 1013.5 | |
| 20260507190008 | 58 | 0.0 | 0.0 | 0.00 | 0.00 | 0.00 | 99 | 1013.4 | |
| 20260507185008 | 58 | 0.0 | 0.0 | 0.00 | 0.00 | 0.00 | 99 | 1013.3 | |
| 20260507184008 | 62 | 0.0 | 0.0 | 0.00 | 0.00 | 0.00 | 72 | 1012.8 | |
| 20260507183008 | 63 | 0.0 | 0.0 | 0.00 | 0.00 | 0.00 | 70 | 1012.6 | |
| 20260507182008 | 63 | 0.0 | 0.0 | 0.00 | 0.00 | 0.00 | 69 | 1012.5 | |
| 20260507181008 | 63 | 0.0 | 0.0 | 0.00 | 0.00 | 0.00 | 68 | 1012.4 | |
| 20260507180008 | 63 | 0.0 | 0.0 | 0.00 | 0.00 | 0.00 | 66 | 1012.3 | |
| 20260507175008 | 63 | 0.0 | 0.0 | 0.00 | 0.00 | 0.00 | 66 | 1012.2 | |
| 20260507174008 | 64 | 0.0 | 0.0 | 0.00 | 0.00 | 0.00 | 65 | 1012.2 | |
| 20260507173008 | 64 | 0.0 | 0.0 | 0.00 | 0.00 | 0.00 | 64 | 1012.2 | |
| 20260507172008 | 65 | 0.0 | 0.0 | 0.00 | 0.00 | 0.00 | 63 | 1012.3 | |
| 20260507171008 | 65 | 0.0 | 0.0 | 0.00 | 0.00 | 0.00 | 62 | 1012.1 | |
| 20260507170008 | 65 | 0.0 | 0.0 | 0.00 | 0.00 | 0.00 | 61 | 1012.0 | |
| 20260507165008 | 66 | 0.0 | 0.0 | 0.00 | 0.00 | 0.00 | 59 | 1011.8 | |
| 20260507164008 | 67 | 0.0 | 0.0 | 0.00 | 0.00 | 0.00 | 57 | 1011.8 | |
| 20260507163008 | 68 | 0.0 | 0.0 | 0.00 | 0.00 | 0.00 | 56 | 1011.8 | |
| 20260507162008 | 69 | 0.0 | 0.0 | 0.00 | 0.00 | 0.00 | 53 | 1011.6 | |
| 20260507161008 | 68 | 0.0 | 0.0 | 0.00 | 0.00 | 0.00 | 55 | 1011.7 | |
| 20260507160008 | 70 | 0.0 | 0.0 | 0.00 | 0.00 | 0.00 | 52 | 1011.5 | |
| 20260507155008 | 73 | 0.0 | 0.0 | 0.00 | 0.00 | 0.00 | 47 | 1011.4 | |
| 20260507154009 | 75 | 0.0 | 0.0 | 0.00 | 0.00 | 0.00 | 46 | 1011.4 | |
| 20260507153008 | 76 | 0.0 | 0.0 | 0.00 | 0.00 | 0.00 | 44 | 1011.4 | |
| 20260507152008 | 76 | 0.0 | 0.0 | 0.00 | 0.00 | 0.00 | 43 | 1011.6 | |
| 20260507151008 | 74 | 0.0 | 0.0 | 0.00 | 0.00 | 0.00 | 46 | 1011.7 | |
| 20260507150008 | 71 | 0.0 | 0.0 | 0.00 | 0.00 | 0.00 | 51 | 1012.0 | |
| 20260507145008 | 69 | 0.0 | 0.0 | 0.00 | 0.00 | 0.00 | 54 | 1012.1 | |
| 20260507144008 | 67 | 0.0 | 0.0 | 0.00 | 0.00 | 0.00 | 58 | 1012.4 | |
| 20260507143008 | 67 | 0.0 | 0.0 | 0.00 | 0.00 | 0.00 | 59 | 1012.3 | |
| 20260507142008 | 66 | 0.0 | 0.0 | 0.00 | 0.00 | 0.00 | 60 | 1012.4 | |
| 20260507141008 | 65 | 0.0 | 0.0 | 0.00 | 0.00 | 0.00 | 59 | 1012.5 | |
| 20260507140008 | 66 | 0.0 | 0.0 | 0.00 | 0.00 | 0.00 | 59 | 1012.5 | |
| 20260507135008 | 66 | 0.0 | 0.0 | 0.00 | 0.00 | 0.00 | 57 | 1012.4 | |
| 20260507134008 | 66 | 0.0 | 0.0 | 0.00 | 0.00 | 0.00 | 55 | 1012.4 | |
| 20260507133008 | 67 | 0.0 | 0.0 | 0.00 | 0.00 | 0.00 | 55 | 1012.4 | |
| 20260507132008 | 68 | 0.0 | 0.0 | 0.00 | 0.00 | 0.00 | 53 | 1012.3 | |
| 20260507131008 | 68 | 0.0 | 0.0 | 0.00 | 0.00 | 0.00 | 51 | 1012.2 | |
| 20260507130008 | 68 | 0.0 | 0.0 | 0.00 | 0.00 | 0.00 | 51 | 1012.0 | |
| 20260507125008 | 68 | 0.0 | 0.0 | 0.00 | 0.00 | 0.00 | 48 | 1012.1 | |
| 20260507124008 | 69 | 0.0 | 0.0 | 0.00 | 0.00 | 0.00 | 45 | 1011.8 | |
| 20260507123008 | 69 | 0.0 | 0.0 | 0.00 | 0.00 | 0.00 | 43 | 1011.6 | |
| 20260507122008 | 70 | 0.0 | 0.0 | 0.00 | 0.00 | 0.00 | 42 | 1011.7 | |
| 20260507121008 | 71 | 0.0 | 0.0 | 0.00 | 0.00 | 0.00 | 45 | 1011.7 | |
| 20260507120008 | 70 | 0.0 | 0.0 | 0.00 | 0.00 | 0.00 | 47 | 1011.8 | |
| 20260507115008 | 71 | 0.0 | 0.0 | 0.00 | 0.00 | 0.00 | 46 | 1011.9 | |
| 20260507114008 | 70 | 0.0 | 0.0 | 0.00 | 0.00 | 0.00 | 45 | 1012.0 | |
| 20260507113008 | 70 | 0.0 | 0.0 | 0.00 | 0.00 | 0.00 | 48 | 1012.1 | |
| 20260507112008 | 70 | 0.0 | 0.0 | 0.00 | 0.00 | 0.00 | 49 | 1012.2 | |
| 20260507111008 | 69 | 0.0 | 0.0 | 0.00 | 0.00 | 0.00 | 49 | 1012.2 | |
| 20260507110008 | 69 | 0.0 | 0.0 | 0.00 | 0.00 | 0.00 | 50 | 1012.4 | |
| 20260507105008 | 69 | 0.0 | 0.0 | 0.00 | 0.00 | 0.00 | 49 | 1012.1 | |
| 20260507104011 | 69 | 0.0 | 0.0 | 0.00 | 0.00 | 0.00 | 49 | 1012.2 | |
| 20260507103008 | 69 | 0.0 | 0.0 | 0.00 | 0.00 | 0.00 | 49 | 1012.2 | |
| 20260507102008 | 69 | 0.0 | 0.0 | 0.00 | 0.00 | 0.00 | 50 | 1012.1 | |
| 20260507101008 | 69 | 0.0 | 0.0 | 0.00 | 0.00 | 0.00 | 51 | 1012.2 | |
| 20260507100008 | 69 | 0.0 | 0.0 | 0.00 | 0.00 | 0.00 | 51 | 1012.2 | |
| 20260507095008 | 69 | 0.0 | 0.0 | 0.00 | 0.00 | 0.00 | 51 | 1012.2 | |
| 20260507094008 | 68 | 0.0 | 0.0 | 0.00 | 0.00 | 0.00 | 51 | 1012.2 | |
| 20260507093008 | 68 | 0.0 | 0.0 | 0.00 | 0.00 | 0.00 | 51 | 1012.2 | |
| 20260507092008 | 68 | 0.0 | 0.0 | 0.00 | 0.00 | 0.00 | 51 | 1012.1 | |
| 20260507091008 | 68 | 0.0 | 0.0 | 0.00 | 0.00 | 0.00 | 50 | 1011.9 | |
| 20260507090008 | 68 | 0.0 | 0.0 | 0.00 | 0.00 | 0.00 | 50 | 1011.8 | |
| 20260507085008 | 68 | 0.0 | 0.0 | 0.00 | 0.00 | 0.00 | 51 | 1011.8 | |
| 20260507084008 | 68 | 0.0 | 0.0 | 0.00 | 0.00 | 0.00 | 51 | 1011.6 | |
| 20260507083008 | 69 | 0.0 | 0.0 | 0.00 | 0.00 | 0.00 | 51 | 1011.5 | |
| 20260507082008 | 68 | 0.0 | 0.0 | 0.00 | 0.00 | 0.00 | 51 | 1011.3 | |
| 20260507081008 | 68 | 0.0 | 0.0 | 0.00 | 0.00 | 0.00 | 52 | 1011.5 | |
| 20260507080008 | 68 | 0.0 | 0.0 | 0.00 | 0.00 | 0.00 | 52 | 1011.3 | |
| 20260507075008 | 67 | 0.0 | 0.0 | 0.00 | 0.00 | 0.00 | 54 | 1011.3 | |
| 20260507074008 | 67 | 0.0 | 0.0 | 0.00 | 0.00 | 0.00 | 55 | 1011.3 | |
| 20260507073008 | 67 | 0.0 | 0.0 | 0.00 | 0.00 | 0.00 | 55 | 1011.2 | |
| 20260507072008 | 66 | 0.0 | 0.0 | 0.00 | 0.00 | 0.00 | 57 | 1011.3 | |
| 20260507071008 | 66 | 0.0 | 0.0 | 0.00 | 0.00 | 0.00 | 58 | 1011.3 | |
| 20260507070011 | 66 | 0.0 | 0.0 | 0.00 | 0.00 | 0.00 | 56 | 1011.1 | |
| 20260507065008 | 66 | 0.0 | 0.0 | 0.00 | 0.00 | 0.00 | 56 | 1011.0 | |
| 20260507064008 | 65 | 0.0 | 0.0 | 0.00 | 0.00 | 0.00 | 57 | 1010.9 | |
| 20260507063008 | 64 | 0.0 | 0.0 | 0.00 | 0.00 | 0.00 | 59 | 1011.2 | |
| 20260507062008 | 63 | 0.0 | 0.0 | 0.00 | 0.00 | 0.00 | 61 | 1011.3 | |
| 20260507061008 | 63 | 0.0 | 0.0 | 0.00 | 0.00 | 0.00 | 61 | 1011.2 | |
| 20260507060008 | 62 | 0.0 | 0.0 | 0.00 | 0.00 | 0.00 | 61 | 1011.1 | |
| 20260507055008 | 61 | 0.0 | 0.0 | 0.00 | 0.00 | 0.00 | 64 | 1011.1 | |
| 20260507054008 | 61 | 0.0 | 0.0 | 0.00 | 0.00 | 0.00 | 66 | 1011.3 | |
| 20260507053008 | 59 | 0.0 | 0.0 | 0.00 | 0.00 | 0.00 | 71 | 1011.3 | |
| 20260507052008 | 57 | 0.0 | 0.0 | 0.00 | 0.00 | 0.00 | 75 | 1011.5 | |
| 20260507051008 | 56 | 0.0 | 0.0 | 0.00 | 0.00 | 0.00 | 78 | 1011.6 | |
| 20260507050008 | 55 | 0.0 | 0.0 | 0.00 | 0.00 | 0.00 | 80 | 1011.4 | |
| 20260507045008 | 55 | 0.0 | 0.0 | 0.00 | 0.00 | 0.00 | 81 | 1011.4 | |
| 20260507044008 | 54 | 0.0 | 0.0 | 0.00 | 0.00 | 0.00 | 81 | 1011.6 | |
| 20260507043008 | 54 | 0.0 | 0.0 | 0.00 | 0.00 | 0.00 | 83 | 1011.7 | |
| 20260507042008 | 53 | 0.0 | 0.0 | 0.00 | 0.00 | 0.00 | 84 | 1011.8 | |
| 20260507041008 | 52 | 0.0 | 0.0 | 0.00 | 0.00 | 0.00 | 85 | 1011.8 | |
| 20260507040008 | 52 | 0.0 | 0.0 | 0.00 | 0.00 | 0.00 | 86 | 1011.8 | |
| 20260507035008 | 52 | 0.0 | 0.0 | 0.00 | 0.00 | 0.00 | 87 | 1011.8 | |
| 20260507034008 | 52 | 0.0 | 0.0 | 0.00 | 0.00 | 0.00 | 87 | 1011.7 | |
| 20260507033008 | 52 | 0.0 | 0.0 | 0.00 | 0.00 | 0.00 | 88 | 1011.6 | |
| 20260507032008 | 52 | 0.0 | 0.0 | 0.00 | 0.00 | 0.00 | 87 | 1011.7 | |
| 20260507031008 | 52 | 0.0 | 0.0 | 0.00 | 0.00 | 0.00 | 86 | 1011.8 | |
| 20260507030008 | 52 | 0.0 | 0.0 | 0.00 | 0.00 | 0.00 | 84 | 1011.6 | |
| 20260507025008 | 52 | 0.0 | 0.0 | 0.00 | 0.00 | 0.00 | 86 | 1011.5 | |
| 20260507024008 | 52 | 0.0 | 0.0 | 0.00 | 0.00 | 0.00 | 85 | 1011.3 | |
| 20260507023008 | 52 | 0.0 | 0.0 | 0.00 | 0.00 | 0.00 | 86 | 1011.1 | |
| 20260507022008 | 52 | 0.0 | 0.0 | 0.00 | 0.00 | 0.00 | 86 | 1010.9 | |
| 20260507021008 | 52 | 0.0 | 0.0 | 0.00 | 0.00 | 0.00 | 84 | 1010.8 | |
| 20260507020009 | 53 | 0.0 | 0.0 | 0.00 | 0.00 | 0.00 | 84 | 1010.8 | |
| 20260507015008 | 52 | 0.0 | 0.0 | 0.00 | 0.00 | 0.00 | 84 | 1010.8 | |
| 20260507014008 | 52 | 0.0 | 0.0 | 0.00 | 0.00 | 0.00 | 83 | 1010.9 | |
| 20260507013008 | 53 | 0.0 | 0.0 | 0.00 | 0.00 | 0.00 | 81 | 1010.7 | |
| 20260507012008 | 53 | 0.0 | 0.0 | 0.00 | 0.00 | 0.00 | 80 | 1010.6 | |
| 20260507011008 | 53 | 0.0 | 0.0 | 0.00 | 0.00 | 0.00 | 81 | 1010.6 | |
| 20260507010008 | 53 | 0.0 | 0.0 | 0.00 | 0.00 | 0.00 | 80 | 1010.5 | |
| 20260507005008 | 53 | 0.0 | 0.0 | 0.00 | 0.00 | 0.00 | 80 | 1010.4 | |
| 20260507004008 | 53 | 0.0 | 0.0 | 0.00 | 0.00 | 0.00 | 80 | 1010.4 | |
| 20260507003008 | 54 | 0.0 | 0.0 | 0.00 | 0.00 | 0.00 | 77 | 1010.3 |